Terminal Aerodrome Forecast
Issued by NWS Jackson, KY

Home | Current Version | Previous Version | Text Only | Print | Product List | Glossary On
Versions: 1 2 3 4 5 6 7 8 9 10 11 12 13 14 15 16 17 18 19
000
FTUS43 KJKL 151700
TAFLOZ
TAF
KLOZ 151740Z 1518/1618 17004KT P6SM FEW250
     FM160200 17005KT 6SM -SHRA OVC050
     FM160700 22006KT 6SM -SHRA BR OVC025
     FM161000 22008KT 4SM -DZ BR OVC010=

USA.gov is the U.S. government's official web portal to all federal, state and local government web resources and services.